createdAt,value
2023-05-20T00:00:25.914Z,90.40
2023-05-20T00:05:27.924Z,90.40
2023-05-20T00:10:29.848Z,90.40
2023-05-20T00:15:32.845Z,90.40
2023-05-20T00:20:34.923Z,90.50
2023-05-20T00:25:37.413Z,90.50
2023-05-20T00:30:42.415Z,90.50
2023-05-20T00:35:44.379Z,90.50
2023-05-20T00:40:46.518Z,90.60
2023-05-20T00:45:48.885Z,90.60
2023-05-20T00:50:51.830Z,90.50
2023-05-20T00:55:54.404Z,90.90
2023-05-20T01:00:57.136Z,90.60
2023-05-20T01:05:59.323Z,90.50
2023-05-20T01:11:17.824Z,90.50
2023-05-20T01:16:23.446Z,90.60
2023-05-20T01:21:28.595Z,90.60
2023-05-20T01:26:30.572Z,90.70
2023-05-20T01:31:37.039Z,90.70
2023-05-20T01:36:41.080Z,90.80
2023-05-20T01:41:44.082Z,90.80
2023-05-20T01:46:50.198Z,90.80
2023-05-20T01:51:52.232Z,90.90
2023-05-20T01:56:54.273Z,90.90
2023-05-20T02:01:57.846Z,90.80
2023-05-20T02:06:59.908Z,90.90
2023-05-20T02:12:01.933Z,90.90
2023-05-20T02:17:04.127Z,90.90
2023-05-20T02:22:07.361Z,91.00
2023-05-20T02:27:09.448Z,91.00
2023-05-20T02:32:12.671Z,90.90
2023-05-20T02:37:14.860Z,90.90
2023-05-20T02:42:16.861Z,90.90
2023-05-20T02:47:18.922Z,91.00
2023-05-20T02:52:22.088Z,91.00
2023-05-20T02:57:24.247Z,91.00
2023-05-20T03:02:26.389Z,90.90
2023-05-20T03:07:29.243Z,90.80
2023-05-20T03:12:31.438Z,90.80
2023-05-20T03:17:33.466Z,90.70
2023-05-20T03:22:35.441Z,90.80
2023-05-20T03:27:38.123Z,90.70
2023-05-20T03:32:40.896Z,90.70
2023-05-20T03:37:43.380Z,90.60
2023-05-20T03:42:45.501Z,90.60
2023-05-20T03:47:48.356Z,90.60
2023-05-20T03:52:52.506Z,90.60
2023-05-20T03:57:57.320Z,90.50
2023-05-20T04:02:59.572Z,90.50
2023-05-20T04:08:01.916Z,90.50
2023-05-20T04:13:03.933Z,90.50
2023-05-20T04:18:06.480Z,90.50
2023-05-20T04:23:08.618Z,90.50
2023-05-20T04:28:14.159Z,90.50
2023-05-20T04:33:18.558Z,90.60
2023-05-20T04:38:20.549Z,90.60
2023-05-20T04:43:30.211Z,90.60
2023-05-20T04:48:33.766Z,90.70
2023-05-20T04:53:36.764Z,90.70
2023-05-20T04:58:39.716Z,90.80
2023-05-20T05:03:41.681Z,90.80
2023-05-20T05:08:43.730Z,90.90
2023-05-20T05:13:45.940Z,91.00
2023-05-20T05:18:48.957Z,91.10
2023-05-20T05:23:51.182Z,91.10
2023-05-20T05:28:55.079Z,91.20
2023-05-20T05:33:57.778Z,91.30
2023-05-20T05:38:59.767Z,91.40
2023-05-20T05:44:01.867Z,91.50
2023-05-20T05:49:04.523Z,91.60
2023-05-20T05:54:06.557Z,91.60
2023-05-20T05:59:08.579Z,91.70
2023-05-20T06:04:10.631Z,91.80
2023-05-20T06:09:13.427Z,91.90
2023-05-20T06:14:16.572Z,91.90
2023-05-20T06:19:18.513Z,91.90
2023-05-20T06:24:22.353Z,92.00
2023-05-20T06:29:26.047Z,91.90
2023-05-20T06:34:27.977Z,91.80
2023-05-20T06:39:29.931Z,92.20
2023-05-20T06:44:31.918Z,91.90
2023-05-20T06:49:36.278Z,91.90
2023-05-20T06:54:41.440Z,92.00
2023-05-20T06:59:45.763Z,92.00
2023-05-20T07:04:49.665Z,92.40
2023-05-20T07:09:52.819Z,92.30
2023-05-20T07:14:55.448Z,92.40
2023-05-20T07:19:57.554Z,92.50
2023-05-20T07:25:01.150Z,92.60
2023-05-20T07:30:03.327Z,92.60
2023-05-20T07:35:07.459Z,92.70
2023-05-20T07:40:10.881Z,92.70
2023-05-20T07:45:13.665Z,92.80
2023-05-20T07:50:15.839Z,92.80
2023-05-20T07:55:18.587Z,92.90
2023-05-20T08:00:21.130Z,92.90
2023-05-20T08:05:23.062Z,92.90
2023-05-20T08:10:25.504Z,92.90
2023-05-20T08:15:28.710Z,92.90
2023-05-20T08:20:32.350Z,93.00
2023-05-20T08:25:34.730Z,93.10
2023-05-20T08:30:36.995Z,93.20
2023-05-20T08:35:40.620Z,93.30
2023-05-20T08:40:42.664Z,93.30
2023-05-20T08:45:45.105Z,93.30
2023-05-20T08:50:51.982Z,93.40
2023-05-20T08:56:01.435Z,93.50
2023-05-20T09:01:03.614Z,93.60
2023-05-20T09:06:07.296Z,93.50
2023-05-20T09:11:10.395Z,93.60
2023-05-20T09:16:12.817Z,93.70
2023-05-20T09:21:14.834Z,93.70
2023-05-20T09:26:18.539Z,93.80
2023-05-20T09:31:20.766Z,93.80
2023-05-20T09:36:28.335Z,93.90
2023-05-20T09:41:38.338Z,93.90
2023-05-20T09:46:41.316Z,93.80
2023-05-20T09:51:45.223Z,93.90
2023-05-20T09:56:48.106Z,93.80
2023-05-20T10:01:50.085Z,93.80
2023-05-20T10:07:37.811Z,93.80
2023-05-20T10:13:04.719Z,93.80
2023-05-20T10:18:44.649Z,94.00
2023-05-20T10:23:46.567Z,94.00
2023-05-20T10:28:49.477Z,94.10
2023-05-20T10:33:53.942Z,94.10
2023-05-20T10:38:57.155Z,94.00
2023-05-20T10:44:03.564Z,94.00
2023-05-20T10:49:06.005Z,94.00
2023-05-20T10:54:10.645Z,94.00
2023-05-20T10:59:12.847Z,94.10
2023-05-20T11:04:17.253Z,94.10
2023-05-20T11:09:19.383Z,94.20
2023-05-20T11:14:21.967Z,94.10
2023-05-20T11:19:24.113Z,94.20
2023-05-20T11:24:27.744Z,94.10
2023-05-20T11:29:32.194Z,94.20
2023-05-20T11:34:38.025Z,94.20
2023-05-20T11:39:40.339Z,94.20
2023-05-20T11:44:45.585Z,94.40
2023-05-20T11:49:49.585Z,94.40
2023-05-20T11:54:53.609Z,94.70
2023-05-20T11:59:55.932Z,94.50
2023-05-20T12:04:58.287Z,94.60
2023-05-20T12:10:01.925Z,94.60
2023-05-20T12:15:05.068Z,94.60
2023-05-20T12:20:07.633Z,94.60
2023-05-20T12:25:12.301Z,94.60
2023-05-20T12:30:25.032Z,94.60
2023-05-20T12:35:38.022Z,94.70
2023-05-20T12:40:40.268Z,94.70
2023-05-20T12:45:42.323Z,94.60
2023-05-20T12:50:44.796Z,94.60
2023-05-20T12:55:46.894Z,94.60
2023-05-20T13:00:49.029Z,94.70
2023-05-20T13:05:54.111Z,94.80
2023-05-20T13:11:00.319Z,94.80
2023-05-20T13:16:03.151Z,94.70
2023-05-20T13:21:21.447Z,94.60
2023-05-20T13:26:26.301Z,94.70
2023-05-20T13:31:28.950Z,94.70
2023-05-20T13:36:32.906Z,94.70
2023-05-20T13:41:35.276Z,94.70
2023-05-20T13:46:41.477Z,94.60
2023-05-20T13:51:43.909Z,94.60
2023-05-20T13:56:46.200Z,94.50
2023-05-20T14:01:48.538Z,94.60
2023-05-20T14:06:50.972Z,94.60
2023-05-20T14:11:53.216Z,94.60
2023-05-20T14:16:55.577Z,94.60
2023-05-20T14:22:01.392Z,94.60
2023-05-20T14:27:03.951Z,94.50
2023-05-20T14:32:06.654Z,94.50
2023-05-20T14:37:12.189Z,94.50
2023-05-20T14:42:15.758Z,94.40
2023-05-20T14:47:22.444Z,94.40
2023-05-20T14:52:25.156Z,94.40
2023-05-20T14:57:27.504Z,94.30
2023-05-20T15:02:35.902Z,94.30
2023-05-20T15:07:41.765Z,94.30
2023-05-20T15:12:43.806Z,94.20
2023-05-20T15:17:50.891Z,94.20
2023-05-20T15:22:54.409Z,94.10
2023-05-20T15:27:56.524Z,94.10
2023-05-20T15:32:58.978Z,94.20
2023-05-20T15:38:01.190Z,94.00
2023-05-20T15:43:03.576Z,94.00
2023-05-20T15:48:06.212Z,93.90
2023-05-20T15:53:09.260Z,93.90
2023-05-20T15:58:11.649Z,93.90
2023-05-20T16:03:13.818Z,93.80
2023-05-20T16:08:16.182Z,93.80
2023-05-20T16:13:18.197Z,93.80
2023-05-20T16:18:20.629Z,93.70
2023-05-20T16:23:22.927Z,93.60
2023-05-20T16:28:25.872Z,93.60
2023-05-20T16:33:30.620Z,93.50
2023-05-20T16:38:34.511Z,93.50
2023-05-20T16:43:36.836Z,93.50
2023-05-20T16:48:38.920Z,93.40
2023-05-20T16:53:41.057Z,93.40
2023-05-20T16:58:43.029Z,93.30
2023-05-20T17:03:45.123Z,93.30
2023-05-20T17:08:47.378Z,93.20
2023-05-20T17:13:49.468Z,93.20
2023-05-20T17:18:51.673Z,93.20
2023-05-20T17:23:53.741Z,93.10
2023-05-20T17:28:55.712Z,93.10
2023-05-20T17:33:57.790Z,93.10
2023-05-20T17:38:59.907Z,93.00
2023-05-20T17:44:01.982Z,93.00
2023-05-20T17:49:03.917Z,93.10
2023-05-20T17:54:06.252Z,93.00
2023-05-20T17:59:08.399Z,93.00
2023-05-20T18:04:10.628Z,93.00
2023-05-20T18:09:12.656Z,93.00
2023-05-20T18:14:14.832Z,92.90
2023-05-20T18:19:16.967Z,92.90
2023-05-20T18:24:20.506Z,92.90
2023-05-20T18:29:23.475Z,93.00
2023-05-20T18:34:28.492Z,92.90
2023-05-20T18:39:30.582Z,92.90
2023-05-20T18:44:35.455Z,92.90
2023-05-20T18:49:37.755Z,92.90
2023-05-20T18:54:39.989Z,92.90
2023-05-20T18:59:41.998Z,92.90
2023-05-20T19:04:43.839Z,92.90
2023-05-20T19:09:45.721Z,92.80
2023-05-20T19:14:47.654Z,92.90
2023-05-20T19:19:49.766Z,92.90
2023-05-20T19:24:51.659Z,92.80
2023-05-20T19:29:53.723Z,92.80
2023-05-20T19:34:55.854Z,92.70
2023-05-20T19:39:58.035Z,92.70
2023-05-20T19:44:59.876Z,92.80
2023-05-20T19:50:01.944Z,92.70
2023-05-20T19:55:04.221Z,92.70
2023-05-20T20:00:07.296Z,92.70
2023-05-20T20:05:15.386Z,92.70
2023-05-20T20:10:17.321Z,93.00
2023-05-20T20:15:20.676Z,92.70
2023-05-20T20:20:23.547Z,92.80
2023-05-20T20:25:26.789Z,92.80
2023-05-20T20:30:28.739Z,92.80
2023-05-20T20:35:30.805Z,92.80
2023-05-20T20:40:33.400Z,92.90
2023-05-20T20:45:38.290Z,92.80
2023-05-20T20:50:40.189Z,92.90
2023-05-20T20:55:43.216Z,92.90
2023-05-20T21:00:45.807Z,92.90
2023-05-20T21:05:48.625Z,92.90
2023-05-20T21:10:50.532Z,92.90
2023-05-20T21:15:52.429Z,92.90
2023-05-20T21:20:55.654Z,92.80
2023-05-20T21:25:57.575Z,92.90
2023-05-20T21:30:59.429Z,92.90
2023-05-20T21:36:01.386Z,92.80
2023-05-20T21:41:03.306Z,92.80
2023-05-20T21:46:06.231Z,92.90
2023-05-20T21:51:08.184Z,92.80
2023-05-20T21:56:12.870Z,92.80
2023-05-20T22:01:14.878Z,92.90
2023-05-20T22:06:17.113Z,92.90
2023-05-20T22:11:19.750Z,92.90
2023-05-20T22:16:21.886Z,92.90
2023-05-20T22:21:24.573Z,92.90
2023-05-20T22:26:26.801Z,92.80
2023-05-20T22:31:33.614Z,92.90
2023-05-20T22:36:43.489Z,92.90
2023-05-20T22:41:45.415Z,92.80
2023-05-20T22:46:47.590Z,92.80
2023-05-20T22:51:52.748Z,93.20
2023-05-20T22:56:58.075Z,92.90
2023-05-20T23:02:00.314Z,92.90
2023-05-20T23:07:02.180Z,93.00
2023-05-20T23:12:04.394Z,93.00
2023-05-20T23:17:06.575Z,93.10
2023-05-20T23:22:08.531Z,93.00
2023-05-20T23:27:10.499Z,93.10
2023-05-20T23:32:12.374Z,93.10
2023-05-20T23:37:14.263Z,93.10
2023-05-20T23:42:16.239Z,93.00
2023-05-20T23:47:18.686Z,93.10
2023-05-20T23:52:20.666Z,93.10
2023-05-20T23:57:22.696Z,93.10
